sensor_id;sensor_type;location;lat;lon;timestamp;temperature;humidity
16511;DHT22;8368;48.772;8.754;2023-02-17T00:01:16;5.50;99.90
16511;DHT22;8368;48.772;8.754;2023-02-17T00:03:43;5.50;99.90
16511;DHT22;8368;48.772;8.754;2023-02-17T00:06:12;5.50;99.90
16511;DHT22;8368;48.772;8.754;2023-02-17T00:08:38;5.40;99.90
16511;DHT22;8368;48.772;8.754;2023-02-17T00:11:04;5.50;99.90
16511;DHT22;8368;48.772;8.754;2023-02-17T00:13:30;5.50;99.90
16511;DHT22;8368;48.772;8.754;2023-02-17T00:15:55;5.50;99.90
16511;DHT22;8368;48.772;8.754;2023-02-17T00:18:21;5.50;99.90
16511;DHT22;8368;48.772;8.754;2023-02-17T00:20:47;5.50;99.90
16511;DHT22;8368;48.772;8.754;2023-02-17T00:23:13;5.50;99.90
16511;DHT22;8368;48.772;8.754;2023-02-17T00:25:38;5.50;99.90
16511;DHT22;8368;48.772;8.754;2023-02-17T00:28:04;5.40;99.90
16511;DHT22;8368;48.772;8.754;2023-02-17T00:30:30;5.40;99.90
16511;DHT22;8368;48.772;8.754;2023-02-17T00:32:55;5.30;99.90
16511;DHT22;8368;48.772;8.754;2023-02-17T00:35:21;5.30;99.90
16511;DHT22;8368;48.772;8.754;2023-02-17T00:37:47;5.30;99.90
16511;DHT22;8368;48.772;8.754;2023-02-17T00:40:13;5.30;99.90
16511;DHT22;8368;48.772;8.754;2023-02-17T00:42:39;5.30;99.90
16511;DHT22;8368;48.772;8.754;2023-02-17T00:45:05;5.30;99.90
16511;DHT22;8368;48.772;8.754;2023-02-17T00:47:30;5.30;99.90
16511;DHT22;8368;48.772;8.754;2023-02-17T00:49:56;5.30;99.90
16511;DHT22;8368;48.772;8.754;2023-02-17T00:52:21;5.30;99.90
16511;DHT22;8368;48.772;8.754;2023-02-17T00:54:47;5.40;99.90
16511;DHT22;8368;48.772;8.754;2023-02-17T00:57:13;5.50;99.90
16511;DHT22;8368;48.772;8.754;2023-02-17T00:59:38;5.60;99.90
16511;DHT22;8368;48.772;8.754;2023-02-17T01:02:04;5.60;99.90
16511;DHT22;8368;48.772;8.754;2023-02-17T01:04:29;5.60;99.90
16511;DHT22;8368;48.772;8.754;2023-02-17T01:06:55;5.70;99.90
16511;DHT22;8368;48.772;8.754;2023-02-17T01:09:20;5.70;99.90
16511;DHT22;8368;48.772;8.754;2023-02-17T01:11:46;5.70;99.90
16511;DHT22;8368;48.772;8.754;2023-02-17T01:14:13;5.70;99.90
16511;DHT22;8368;48.772;8.754;2023-02-17T01:16:40;5.70;99.90
16511;DHT22;8368;48.772;8.754;2023-02-17T01:19:11;5.70;99.90
16511;DHT22;8368;48.772;8.754;2023-02-17T01:21:36;5.70;99.90
16511;DHT22;8368;48.772;8.754;2023-02-17T01:24:04;5.60;99.90
16511;DHT22;8368;48.772;8.754;2023-02-17T01:26:31;5.60;99.90
16511;DHT22;8368;48.772;8.754;2023-02-17T01:28:57;5.50;99.90
16511;DHT22;8368;48.772;8.754;2023-02-17T01:31:24;5.50;99.90
16511;DHT22;8368;48.772;8.754;2023-02-17T01:33:51;5.40;99.90
16511;DHT22;8368;48.772;8.754;2023-02-17T01:36:18;5.40;99.90
16511;DHT22;8368;48.772;8.754;2023-02-17T01:38:44;5.50;99.90
16511;DHT22;8368;48.772;8.754;2023-02-17T01:41:12;5.50;99.90
16511;DHT22;8368;48.772;8.754;2023-02-17T01:43:38;5.60;99.90
16511;DHT22;8368;48.772;8.754;2023-02-17T01:46:04;5.70;99.90
16511;DHT22;8368;48.772;8.754;2023-02-17T01:48:37;5.70;99.90
16511;DHT22;8368;48.772;8.754;2023-02-17T01:51:17;5.70;99.90
16511;DHT22;8368;48.772;8.754;2023-02-17T01:54:01;5.70;99.90
16511;DHT22;8368;48.772;8.754;2023-02-17T01:56:28;5.80;99.90
16511;DHT22;8368;48.772;8.754;2023-02-17T01:59:02;5.90;99.90
16511;DHT22;8368;48.772;8.754;2023-02-17T02:01:29;5.90;99.90
16511;DHT22;8368;48.772;8.754;2023-02-17T02:03:55;5.90;99.90
16511;DHT22;8368;48.772;8.754;2023-02-17T02:06:25;5.90;99.90
16511;DHT22;8368;48.772;8.754;2023-02-17T02:09:08;6.00;99.90
16511;DHT22;8368;48.772;8.754;2023-02-17T02:11:35;6.00;99.90
16511;DHT22;8368;48.772;8.754;2023-02-17T02:14:02;6.10;99.90
16511;DHT22;8368;48.772;8.754;2023-02-17T02:28:27;6.20;99.90
16511;DHT22;8368;48.772;8.754;2023-02-17T02:31:27;6.20;99.90
16511;DHT22;8368;48.772;8.754;2023-02-17T02:34:00;6.30;99.90
16511;DHT22;8368;48.772;8.754;2023-02-17T02:36:32;6.40;99.90
16511;DHT22;8368;48.772;8.754;2023-02-17T02:39:17;6.40;99.90
16511;DHT22;8368;48.772;8.754;2023-02-17T02:41:58;6.40;99.90
16511;DHT22;8368;48.772;8.754;2023-02-17T02:44:25;6.40;99.90
16511;DHT22;8368;48.772;8.754;2023-02-17T02:47:05;6.70;99.90
16511;DHT22;8368;48.772;8.754;2023-02-17T02:49:32;6.70;99.90
16511;DHT22;8368;48.772;8.754;2023-02-17T02:52:09;6.80;99.90
16511;DHT22;8368;48.772;8.754;2023-02-17T03:00:34;7.40;99.90
16511;DHT22;8368;48.772;8.754;2023-02-17T03:06:26;7.20;99.90
16511;DHT22;8368;48.772;8.754;2023-02-17T03:08:53;7.10;99.90
16511;DHT22;8368;48.772;8.754;2023-02-17T03:11:25;7.10;99.90
16511;DHT22;8368;48.772;8.754;2023-02-17T03:16:30;7.00;99.90
16511;DHT22;8368;48.772;8.754;2023-02-17T03:18:55;7.00;99.90
16511;DHT22;8368;48.772;8.754;2023-02-17T03:21:21;7.10;99.90
16511;DHT22;8368;48.772;8.754;2023-02-17T03:23:48;7.20;99.90
16511;DHT22;8368;48.772;8.754;2023-02-17T03:26:13;7.30;99.90
16511;DHT22;8368;48.772;8.754;2023-02-17T03:28:39;7.40;99.90
16511;DHT22;8368;48.772;8.754;2023-02-17T03:31:04;7.40;99.90
16511;DHT22;8368;48.772;8.754;2023-02-17T03:33:30;7.60;99.90
16511;DHT22;8368;48.772;8.754;2023-02-17T03:35:55;7.60;99.90
16511;DHT22;8368;48.772;8.754;2023-02-17T03:38:21;7.60;99.90
16511;DHT22;8368;48.772;8.754;2023-02-17T03:40:46;7.60;99.90
16511;DHT22;8368;48.772;8.754;2023-02-17T03:43:12;7.70;99.90
16511;DHT22;8368;48.772;8.754;2023-02-17T03:45:37;7.80;99.90
16511;DHT22;8368;48.772;8.754;2023-02-17T03:48:03;8.00;99.90
16511;DHT22;8368;48.772;8.754;2023-02-17T03:50:29;8.10;99.90
16511;DHT22;8368;48.772;8.754;2023-02-17T03:52:55;8.10;99.90
16511;DHT22;8368;48.772;8.754;2023-02-17T03:55:22;8.10;99.90
16511;DHT22;8368;48.772;8.754;2023-02-17T03:57:47;8.00;99.90
16511;DHT22;8368;48.772;8.754;2023-02-17T04:00:13;8.00;99.90
16511;DHT22;8368;48.772;8.754;2023-02-17T04:02:39;7.90;99.90
16511;DHT22;8368;48.772;8.754;2023-02-17T04:05:05;7.90;99.90
16511;DHT22;8368;48.772;8.754;2023-02-17T04:07:30;8.00;99.90
16511;DHT22;8368;48.772;8.754;2023-02-17T04:09:56;8.00;99.90
16511;DHT22;8368;48.772;8.754;2023-02-17T04:12:22;8.10;99.90
16511;DHT22;8368;48.772;8.754;2023-02-17T04:14:47;8.00;99.90
16511;DHT22;8368;48.772;8.754;2023-02-17T04:17:13;8.00;99.90
16511;DHT22;8368;48.772;8.754;2023-02-17T04:19:38;8.00;99.90
16511;DHT22;8368;48.772;8.754;2023-02-17T04:22:04;8.00;99.90
16511;DHT22;8368;48.772;8.754;2023-02-17T04:24:34;8.10;99.90
16511;DHT22;8368;48.772;8.754;2023-02-17T04:27:00;8.30;99.90
16511;DHT22;8368;48.772;8.754;2023-02-17T04:29:25;8.30;99.90
16511;DHT22;8368;48.772;8.754;2023-02-17T04:31:51;8.30;99.90
16511;DHT22;8368;48.772;8.754;2023-02-17T04:34:16;8.30;99.90
16511;DHT22;8368;48.772;8.754;2023-02-17T04:36:42;8.40;99.90
16511;DHT22;8368;48.772;8.754;2023-02-17T04:39:07;8.30;99.90
16511;DHT22;8368;48.772;8.754;2023-02-17T04:41:33;8.30;99.90
16511;DHT22;8368;48.772;8.754;2023-02-17T04:43:58;8.30;99.90
16511;DHT22;8368;48.772;8.754;2023-02-17T04:46:24;8.10;99.90
16511;DHT22;8368;48.772;8.754;2023-02-17T04:48:49;8.00;99.90
16511;DHT22;8368;48.772;8.754;2023-02-17T04:51:15;8.00;99.90
16511;DHT22;8368;48.772;8.754;2023-02-17T04:53:40;8.00;99.90
16511;DHT22;8368;48.772;8.754;2023-02-17T04:56:06;8.00;99.90
16511;DHT22;8368;48.772;8.754;2023-02-17T04:58:31;8.00;99.90
16511;DHT22;8368;48.772;8.754;2023-02-17T05:00:58;8.00;99.90
16511;DHT22;8368;48.772;8.754;2023-02-17T05:03:25;8.00;99.90
16511;DHT22;8368;48.772;8.754;2023-02-17T05:05:50;8.00;99.90
16511;DHT22;8368;48.772;8.754;2023-02-17T05:08:16;8.00;99.90
16511;DHT22;8368;48.772;8.754;2023-02-17T05:10:41;8.00;99.90
16511;DHT22;8368;48.772;8.754;2023-02-17T05:13:07;8.00;99.90
16511;DHT22;8368;48.772;8.754;2023-02-17T05:15:32;8.00;99.90
16511;DHT22;8368;48.772;8.754;2023-02-17T05:17:58;8.00;99.90
16511;DHT22;8368;48.772;8.754;2023-02-17T05:20:24;8.00;99.90
16511;DHT22;8368;48.772;8.754;2023-02-17T05:22:49;8.00;99.90
16511;DHT22;8368;48.772;8.754;2023-02-17T05:25:15;8.00;99.90
16511;DHT22;8368;48.772;8.754;2023-02-17T05:27:40;8.00;99.90
16511;DHT22;8368;48.772;8.754;2023-02-17T05:30:06;7.90;99.90
16511;DHT22;8368;48.772;8.754;2023-02-17T05:32:32;7.90;99.90
16511;DHT22;8368;48.772;8.754;2023-02-17T05:34:57;8.00;99.90
16511;DHT22;8368;48.772;8.754;2023-02-17T05:37:23;8.00;99.90
16511;DHT22;8368;48.772;8.754;2023-02-17T05:39:48;8.00;99.90
16511;DHT22;8368;48.772;8.754;2023-02-17T05:42:14;8.00;99.90
16511;DHT22;8368;48.772;8.754;2023-02-17T05:44:40;7.90;99.90
16511;DHT22;8368;48.772;8.754;2023-02-17T05:47:05;7.90;99.90
16511;DHT22;8368;48.772;8.754;2023-02-17T05:49:31;7.90;99.90
16511;DHT22;8368;48.772;8.754;2023-02-17T05:51:56;8.00;99.90
16511;DHT22;8368;48.772;8.754;2023-02-17T05:54:22;8.00;99.90
16511;DHT22;8368;48.772;8.754;2023-02-17T05:56:47;8.00;99.90
16511;DHT22;8368;48.772;8.754;2023-02-17T05:59:13;8.00;99.90
16511;DHT22;8368;48.772;8.754;2023-02-17T06:01:38;8.00;99.90
16511;DHT22;8368;48.772;8.754;2023-02-17T06:04:04;8.10;99.90
16511;DHT22;8368;48.772;8.754;2023-02-17T06:06:29;8.10;99.90
16511;DHT22;8368;48.772;8.754;2023-02-17T06:08:55;8.10;99.90
16511;DHT22;8368;48.772;8.754;2023-02-17T06:11:21;8.10;99.90
16511;DHT22;8368;48.772;8.754;2023-02-17T06:13:47;8.20;99.90
16511;DHT22;8368;48.772;8.754;2023-02-17T06:16:12;8.20;99.90
16511;DHT22;8368;48.772;8.754;2023-02-17T06:18:38;8.20;99.90
16511;DHT22;8368;48.772;8.754;2023-02-17T06:21:03;8.20;99.90
16511;DHT22;8368;48.772;8.754;2023-02-17T06:23:29;8.20;99.90
16511;DHT22;8368;48.772;8.754;2023-02-17T06:25:54;8.30;99.90
16511;DHT22;8368;48.772;8.754;2023-02-17T06:28:20;8.30;99.90
16511;DHT22;8368;48.772;8.754;2023-02-17T06:30:46;8.20;99.90
16511;DHT22;8368;48.772;8.754;2023-02-17T06:33:11;8.20;99.90
16511;DHT22;8368;48.772;8.754;2023-02-17T06:35:38;8.30;99.90
16511;DHT22;8368;48.772;8.754;2023-02-17T06:38:03;8.20;99.90
16511;DHT22;8368;48.772;8.754;2023-02-17T06:40:29;8.20;99.90
16511;DHT22;8368;48.772;8.754;2023-02-17T06:42:55;8.20;99.90
16511;DHT22;8368;48.772;8.754;2023-02-17T06:45:20;8.20;99.90
16511;DHT22;8368;48.772;8.754;2023-02-17T06:47:46;8.10;99.90
16511;DHT22;8368;48.772;8.754;2023-02-17T06:50:12;8.20;99.90
16511;DHT22;8368;48.772;8.754;2023-02-17T06:52:37;8.20;99.90
16511;DHT22;8368;48.772;8.754;2023-02-17T06:55:03;8.20;99.90
16511;DHT22;8368;48.772;8.754;2023-02-17T06:57:29;8.20;99.90
16511;DHT22;8368;48.772;8.754;2023-02-17T06:59:54;8.30;99.90
16511;DHT22;8368;48.772;8.754;2023-02-17T07:02:20;8.30;99.90
16511;DHT22;8368;48.772;8.754;2023-02-17T07:04:46;8.30;99.90
16511;DHT22;8368;48.772;8.754;2023-02-17T07:07:11;8.40;99.90
16511;DHT22;8368;48.772;8.754;2023-02-17T07:09:37;8.40;99.90
16511;DHT22;8368;48.772;8.754;2023-02-17T07:12:03;8.40;99.90
16511;DHT22;8368;48.772;8.754;2023-02-17T07:14:31;8.40;99.90
16511;DHT22;8368;48.772;8.754;2023-02-17T07:16:57;8.40;99.90
16511;DHT22;8368;48.772;8.754;2023-02-17T07:19:22;8.40;99.90
16511;DHT22;8368;48.772;8.754;2023-02-17T07:21:48;8.40;99.90
16511;DHT22;8368;48.772;8.754;2023-02-17T07:24:13;8.40;99.90
16511;DHT22;8368;48.772;8.754;2023-02-17T07:26:39;8.50;99.90
16511;DHT22;8368;48.772;8.754;2023-02-17T07:29:06;8.50;99.90
16511;DHT22;8368;48.772;8.754;2023-02-17T07:31:32;8.50;99.90
16511;DHT22;8368;48.772;8.754;2023-02-17T07:33:59;8.50;99.90
16511;DHT22;8368;48.772;8.754;2023-02-17T07:36:25;8.50;99.90
16511;DHT22;8368;48.772;8.754;2023-02-17T07:38:51;8.60;99.90
16511;DHT22;8368;48.772;8.754;2023-02-17T07:41:19;8.60;99.90
16511;DHT22;8368;48.772;8.754;2023-02-17T07:43:45;8.60;99.90
16511;DHT22;8368;48.772;8.754;2023-02-17T07:46:11;8.70;99.90
16511;DHT22;8368;48.772;8.754;2023-02-17T07:48:38;8.70;99.90
16511;DHT22;8368;48.772;8.754;2023-02-17T07:51:09;8.80;99.90
16511;DHT22;8368;48.772;8.754;2023-02-17T07:53:35;8.80;99.90
16511;DHT22;8368;48.772;8.754;2023-02-17T07:56:02;8.80;99.90
16511;DHT22;8368;48.772;8.754;2023-02-17T07:58:28;8.90;99.90
16511;DHT22;8368;48.772;8.754;2023-02-17T08:00:55;9.00;99.90
16511;DHT22;8368;48.772;8.754;2023-02-17T08:03:20;9.00;99.90
16511;DHT22;8368;48.772;8.754;2023-02-17T08:05:46;9.00;99.90
16511;DHT22;8368;48.772;8.754;2023-02-17T08:08:15;9.00;99.90
16511;DHT22;8368;48.772;8.754;2023-02-17T08:11:00;9.10;99.90
16511;DHT22;8368;48.772;8.754;2023-02-17T08:13:44;9.10;99.90
16511;DHT22;8368;48.772;8.754;2023-02-17T08:16:10;9.10;99.90
16511;DHT22;8368;48.772;8.754;2023-02-17T08:18:35;9.10;99.90
16511;DHT22;8368;48.772;8.754;2023-02-17T08:21:01;9.20;99.90
16511;DHT22;8368;48.772;8.754;2023-02-17T08:23:26;9.20;99.90
16511;DHT22;8368;48.772;8.754;2023-02-17T08:25:56;9.20;99.90
16511;DHT22;8368;48.772;8.754;2023-02-17T08:28:22;9.20;99.90
16511;DHT22;8368;48.772;8.754;2023-02-17T08:30:47;9.20;99.90
16511;DHT22;8368;48.772;8.754;2023-02-17T08:33:13;9.20;99.90
16511;DHT22;8368;48.772;8.754;2023-02-17T08:35:43;9.20;99.90
16511;DHT22;8368;48.772;8.754;2023-02-17T08:38:08;9.30;99.90
16511;DHT22;8368;48.772;8.754;2023-02-17T08:40:34;9.30;99.90
16511;DHT22;8368;48.772;8.754;2023-02-17T08:42:59;9.40;99.90
16511;DHT22;8368;48.772;8.754;2023-02-17T08:45:25;9.30;99.90
16511;DHT22;8368;48.772;8.754;2023-02-17T08:47:50;9.30;99.90
16511;DHT22;8368;48.772;8.754;2023-02-17T08:50:16;9.30;99.90
16511;DHT22;8368;48.772;8.754;2023-02-17T08:52:44;9.20;99.90
16511;DHT22;8368;48.772;8.754;2023-02-17T08:55:10;9.30;99.90
16511;DHT22;8368;48.772;8.754;2023-02-17T08:57:35;9.30;99.90
16511;DHT22;8368;48.772;8.754;2023-02-17T09:00:02;9.30;99.90
16511;DHT22;8368;48.772;8.754;2023-02-17T09:02:29;9.40;99.90
16511;DHT22;8368;48.772;8.754;2023-02-17T09:04:55;9.40;99.90
16511;DHT22;8368;48.772;8.754;2023-02-17T09:07:21;9.40;99.90
16511;DHT22;8368;48.772;8.754;2023-02-17T09:09:46;9.40;99.90
16511;DHT22;8368;48.772;8.754;2023-02-17T09:12:12;9.50;99.90
16511;DHT22;8368;48.772;8.754;2023-02-17T09:14:37;9.60;99.90
16511;DHT22;8368;48.772;8.754;2023-02-17T09:17:04;9.80;99.90
16511;DHT22;8368;48.772;8.754;2023-02-17T09:19:30;9.80;99.90
16511;DHT22;8368;48.772;8.754;2023-02-17T09:21:56;10.00;99.90
16511;DHT22;8368;48.772;8.754;2023-02-17T09:24:21;10.10;99.90
16511;DHT22;8368;48.772;8.754;2023-02-17T09:26:47;10.20;99.90
16511;DHT22;8368;48.772;8.754;2023-02-17T09:29:12;10.20;99.90
16511;DHT22;8368;48.772;8.754;2023-02-17T09:31:38;10.20;99.90
16511;DHT22;8368;48.772;8.754;2023-02-17T09:34:04;10.20;99.90
16511;DHT22;8368;48.772;8.754;2023-02-17T09:36:32;10.20;99.90
16511;DHT22;8368;48.772;8.754;2023-02-17T09:38:59;10.20;99.90
16511;DHT22;8368;48.772;8.754;2023-02-17T09:41:37;10.30;99.90
16511;DHT22;8368;48.772;8.754;2023-02-17T09:44:06;10.50;99.90
16511;DHT22;8368;48.772;8.754;2023-02-17T09:46:41;10.60;99.90
16511;DHT22;8368;48.772;8.754;2023-02-17T09:49:11;10.70;99.90
16511;DHT22;8368;48.772;8.754;2023-02-17T09:51:46;10.80;99.90
16511;DHT22;8368;48.772;8.754;2023-02-17T09:54:22;10.80;99.90
16511;DHT22;8368;48.772;8.754;2023-02-17T09:56:49;10.90;99.90
16511;DHT22;8368;48.772;8.754;2023-02-17T09:59:49;10.90;99.90
16511;DHT22;8368;48.772;8.754;2023-02-17T10:02:17;10.90;99.90
16511;DHT22;8368;48.772;8.754;2023-02-17T10:04:46;10.90;99.90
16511;DHT22;8368;48.772;8.754;2023-02-17T10:07:17;10.90;99.90
16511;DHT22;8368;48.772;8.754;2023-02-17T10:09:50;10.90;99.90
16511;DHT22;8368;48.772;8.754;2023-02-17T10:12:24;10.90;99.90
16511;DHT22;8368;48.772;8.754;2023-02-17T10:15:09;11.00;99.90
16511;DHT22;8368;48.772;8.754;2023-02-17T10:17:53;11.10;99.90
16511;DHT22;8368;48.772;8.754;2023-02-17T10:22:50;11.40;99.90
16511;DHT22;8368;48.772;8.754;2023-02-17T10:25:21;11.40;99.90
16511;DHT22;8368;48.772;8.754;2023-02-17T10:28:30;11.50;99.90
16511;DHT22;8368;48.772;8.754;2023-02-17T10:31:02;11.50;99.90
16511;DHT22;8368;48.772;8.754;2023-02-17T10:33:35;11.70;99.90
16511;DHT22;8368;48.772;8.754;2023-02-17T10:39:58;11.50;99.90
16511;DHT22;8368;48.772;8.754;2023-02-17T10:41:59;11.60;99.90
16511;DHT22;8368;48.772;8.754;2023-02-17T10:44:26;11.60;99.90
16511;DHT22;8368;48.772;8.754;2023-02-17T10:46:53;11.60;99.90
16511;DHT22;8368;48.772;8.754;2023-02-17T10:49:28;11.70;99.90
16511;DHT22;8368;48.772;8.754;2023-02-17T10:52:00;11.70;99.90
16511;DHT22;8368;48.772;8.754;2023-02-17T10:54:33;11.80;99.90
16511;DHT22;8368;48.772;8.754;2023-02-17T10:57:02;11.80;99.90
16511;DHT22;8368;48.772;8.754;2023-02-17T10:59:34;11.90;99.90
16511;DHT22;8368;48.772;8.754;2023-02-17T11:02:21;11.90;99.90
16511;DHT22;8368;48.772;8.754;2023-02-17T11:04:49;12.00;99.90
16511;DHT22;8368;48.772;8.754;2023-02-17T11:07:18;12.10;99.90
16511;DHT22;8368;48.772;8.754;2023-02-17T11:09:59;12.10;99.90
16511;DHT22;8368;48.772;8.754;2023-02-17T11:12:51;12.10;99.90
16511;DHT22;8368;48.772;8.754;2023-02-17T11:15:23;12.10;99.90
16511;DHT22;8368;48.772;8.754;2023-02-17T11:17:49;12.00;99.90
16511;DHT22;8368;48.772;8.754;2023-02-17T11:22:43;12.00;99.90
16511;DHT22;8368;48.772;8.754;2023-02-17T11:25:23;12.00;99.90
16511;DHT22;8368;48.772;8.754;2023-02-17T11:27:54;12.10;99.90
16511;DHT22;8368;48.772;8.754;2023-02-17T11:30:21;12.10;99.90
16511;DHT22;8368;48.772;8.754;2023-02-17T11:32:47;12.10;99.90
16511;DHT22;8368;48.772;8.754;2023-02-17T11:35:23;12.10;99.90
16511;DHT22;8368;48.772;8.754;2023-02-17T11:37:49;12.00;99.90
16511;DHT22;8368;48.772;8.754;2023-02-17T11:40:29;11.90;99.90
16511;DHT22;8368;48.772;8.754;2023-02-17T11:42:59;11.80;99.90
16511;DHT22;8368;48.772;8.754;2023-02-17T11:45:34;11.60;99.90
16511;DHT22;8368;48.772;8.754;2023-02-17T11:51:08;11.60;99.90
16511;DHT22;8368;48.772;8.754;2023-02-17T11:56:22;11.70;99.90
16511;DHT22;8368;48.772;8.754;2023-02-17T11:58:51;11.70;99.90
16511;DHT22;8368;48.772;8.754;2023-02-17T12:09:32;11.80;99.90
16511;DHT22;8368;48.772;8.754;2023-02-17T12:12:15;11.80;99.90
16511;DHT22;8368;48.772;8.754;2023-02-17T12:14:54;11.80;99.90
16511;DHT22;8368;48.772;8.754;2023-02-17T12:17:42;11.90;99.90
16511;DHT22;8368;48.772;8.754;2023-02-17T12:20:24;12.00;99.90
16511;DHT22;8368;48.772;8.754;2023-02-17T12:23:21;12.00;99.90
16511;DHT22;8368;48.772;8.754;2023-02-17T12:25:58;12.00;99.90
16511;DHT22;8368;48.772;8.754;2023-02-17T12:29:23;12.10;99.90
16511;DHT22;8368;48.772;8.754;2023-02-17T12:34:20;12.30;99.90
16511;DHT22;8368;48.772;8.754;2023-02-17T12:36:50;12.30;99.90
16511;DHT22;8368;48.772;8.754;2023-02-17T12:39:23;12.30;99.90
16511;DHT22;8368;48.772;8.754;2023-02-17T12:42:08;12.30;99.90
16511;DHT22;8368;48.772;8.754;2023-02-17T12:44:40;12.30;99.90
16511;DHT22;8368;48.772;8.754;2023-02-17T12:47:27;12.30;99.90
16511;DHT22;8368;48.772;8.754;2023-02-17T12:50:18;12.40;99.90
16511;DHT22;8368;48.772;8.754;2023-02-17T12:52:47;12.50;99.90
16511;DHT22;8368;48.772;8.754;2023-02-17T12:55:21;12.50;99.90
16511;DHT22;8368;48.772;8.754;2023-02-17T12:58:01;12.40;99.90
16511;DHT22;8368;48.772;8.754;2023-02-17T13:00:35;12.40;99.90
16511;DHT22;8368;48.772;8.754;2023-02-17T13:03:03;12.40;99.90
16511;DHT22;8368;48.772;8.754;2023-02-17T13:10:38;12.30;99.90
16511;DHT22;8368;48.772;8.754;2023-02-17T13:13:06;12.30;99.90
16511;DHT22;8368;48.772;8.754;2023-02-17T13:15:43;12.20;99.90
16511;DHT22;8368;48.772;8.754;2023-02-17T13:18:31;12.30;99.90
16511;DHT22;8368;48.772;8.754;2023-02-17T13:23:39;12.40;99.90
16511;DHT22;8368;48.772;8.754;2023-02-17T13:28:47;12.60;99.90
16511;DHT22;8368;48.772;8.754;2023-02-17T13:31:23;12.70;99.90
16511;DHT22;8368;48.772;8.754;2023-02-17T13:33:54;12.70;99.90
16511;DHT22;8368;48.772;8.754;2023-02-17T13:41:54;13.50;99.90
16511;DHT22;8368;48.772;8.754;2023-02-17T13:44:39;13.80;99.90
16511;DHT22;8368;48.772;8.754;2023-02-17T13:47:13;14.30;99.90
16511;DHT22;8368;48.772;8.754;2023-02-17T13:49:41;14.40;99.90
16511;DHT22;8368;48.772;8.754;2023-02-17T13:52:18;14.50;99.90
16511;DHT22;8368;48.772;8.754;2023-02-17T13:54:54;14.60;99.90
16511;DHT22;8368;48.772;8.754;2023-02-17T13:57:32;14.30;99.90
16511;DHT22;8368;48.772;8.754;2023-02-17T14:00:09;14.00;99.90
16511;DHT22;8368;48.772;8.754;2023-02-17T14:02:49;13.80;99.90
16511;DHT22;8368;48.772;8.754;2023-02-17T14:07:52;13.50;99.90
16511;DHT22;8368;48.772;8.754;2023-02-17T14:10:24;13.30;99.90
16511;DHT22;8368;48.772;8.754;2023-02-17T14:12:51;13.30;99.90
16511;DHT22;8368;48.772;8.754;2023-02-17T14:15:19;13.20;99.90
16511;DHT22;8368;48.772;8.754;2023-02-17T14:17:45;13.10;99.90
16511;DHT22;8368;48.772;8.754;2023-02-17T14:20:33;13.00;99.90
16511;DHT22;8368;48.772;8.754;2023-02-17T14:23:07;13.10;99.90
16511;DHT22;8368;48.772;8.754;2023-02-17T14:25:38;13.20;99.90
16511;DHT22;8368;48.772;8.754;2023-02-17T14:28:17;13.20;99.90
16511;DHT22;8368;48.772;8.754;2023-02-17T14:30:43;13.40;99.90
16511;DHT22;8368;48.772;8.754;2023-02-17T14:35:55;13.30;99.90
16511;DHT22;8368;48.772;8.754;2023-02-17T14:40:48;13.30;99.90
16511;DHT22;8368;48.772;8.754;2023-02-17T14:43:14;13.20;99.90
16511;DHT22;8368;48.772;8.754;2023-02-17T14:45:40;13.10;99.90
16511;DHT22;8368;48.772;8.754;2023-02-17T14:48:05;12.90;99.90
16511;DHT22;8368;48.772;8.754;2023-02-17T14:50:32;12.90;99.90
16511;DHT22;8368;48.772;8.754;2023-02-17T14:52:58;12.80;99.90
16511;DHT22;8368;48.772;8.754;2023-02-17T14:55:35;12.70;99.90
16511;DHT22;8368;48.772;8.754;2023-02-17T14:58:03;12.70;99.90
16511;DHT22;8368;48.772;8.754;2023-02-17T15:00:30;12.80;99.90
16511;DHT22;8368;48.772;8.754;2023-02-17T15:02:55;12.90;99.90
16511;DHT22;8368;48.772;8.754;2023-02-17T15:05:21;12.90;99.90
16511;DHT22;8368;48.772;8.754;2023-02-17T15:07:47;12.90;99.90
16511;DHT22;8368;48.772;8.754;2023-02-17T15:10:19;13.00;99.90
16511;DHT22;8368;48.772;8.754;2023-02-17T15:12:46;12.90;99.90
16511;DHT22;8368;48.772;8.754;2023-02-17T15:15:16;12.90;99.90
16511;DHT22;8368;48.772;8.754;2023-02-17T15:17:42;12.80;99.90
16511;DHT22;8368;48.772;8.754;2023-02-17T15:20:08;12.70;99.90
16511;DHT22;8368;48.772;8.754;2023-02-17T15:22:34;12.60;99.90
16511;DHT22;8368;48.772;8.754;2023-02-17T15:25:00;12.60;99.90
16511;DHT22;8368;48.772;8.754;2023-02-17T15:27:25;12.50;99.90
16511;DHT22;8368;48.772;8.754;2023-02-17T15:29:51;12.40;99.90
16511;DHT22;8368;48.772;8.754;2023-02-17T15:32:17;12.40;99.90
16511;DHT22;8368;48.772;8.754;2023-02-17T15:34:48;12.30;99.90
16511;DHT22;8368;48.772;8.754;2023-02-17T15:37:13;12.30;99.90
16511;DHT22;8368;48.772;8.754;2023-02-17T15:39:39;12.30;99.90
16511;DHT22;8368;48.772;8.754;2023-02-17T15:42:11;12.20;99.90
16511;DHT22;8368;48.772;8.754;2023-02-17T15:44:43;12.30;99.90
16511;DHT22;8368;48.772;8.754;2023-02-17T15:47:17;12.20;99.90
16511;DHT22;8368;48.772;8.754;2023-02-17T15:49:44;12.10;99.90
16511;DHT22;8368;48.772;8.754;2023-02-17T15:52:11;12.00;99.90
16511;DHT22;8368;48.772;8.754;2023-02-17T15:54:41;11.90;99.90
16511;DHT22;8368;48.772;8.754;2023-02-17T15:57:18;11.80;99.90
16511;DHT22;8368;48.772;8.754;2023-02-17T15:59:45;11.70;99.90
16511;DHT22;8368;48.772;8.754;2023-02-17T16:02:18;11.70;99.90
16511;DHT22;8368;48.772;8.754;2023-02-17T16:04:44;11.70;99.90
16511;DHT22;8368;48.772;8.754;2023-02-17T16:07:10;11.70;99.90
16511;DHT22;8368;48.772;8.754;2023-02-17T16:09:35;11.70;99.90
16511;DHT22;8368;48.772;8.754;2023-02-17T16:12:01;11.70;99.90
16511;DHT22;8368;48.772;8.754;2023-02-17T16:14:34;11.60;99.90
16511;DHT22;8368;48.772;8.754;2023-02-17T16:17:00;11.60;99.90
16511;DHT22;8368;48.772;8.754;2023-02-17T16:19:26;11.60;99.90
16511;DHT22;8368;48.772;8.754;2023-02-17T16:21:52;11.60;99.90
16511;DHT22;8368;48.772;8.754;2023-02-17T16:24:18;11.60;99.90
16511;DHT22;8368;48.772;8.754;2023-02-17T16:26:44;11.60;99.90
16511;DHT22;8368;48.772;8.754;2023-02-17T16:29:19;11.50;99.90
16511;DHT22;8368;48.772;8.754;2023-02-17T16:31:45;11.50;99.90
16511;DHT22;8368;48.772;8.754;2023-02-17T16:34:19;11.50;99.90
16511;DHT22;8368;48.772;8.754;2023-02-17T16:36:47;11.40;99.90
16511;DHT22;8368;48.772;8.754;2023-02-17T16:39:15;11.40;99.90
16511;DHT22;8368;48.772;8.754;2023-02-17T16:41:40;11.40;99.90
16511;DHT22;8368;48.772;8.754;2023-02-17T16:44:06;11.40;99.90
16511;DHT22;8368;48.772;8.754;2023-02-17T16:46:35;11.50;99.90
16511;DHT22;8368;48.772;8.754;2023-02-17T16:49:02;11.40;99.90
16511;DHT22;8368;48.772;8.754;2023-02-17T16:51:28;11.40;99.90
16511;DHT22;8368;48.772;8.754;2023-02-17T16:53:54;11.40;99.90
16511;DHT22;8368;48.772;8.754;2023-02-17T16:56:44;11.40;99.90
16511;DHT22;8368;48.772;8.754;2023-02-17T16:59:17;11.40;99.90
16511;DHT22;8368;48.772;8.754;2023-02-17T17:01:43;11.40;99.90
16511;DHT22;8368;48.772;8.754;2023-02-17T17:04:09;11.40;99.90
16511;DHT22;8368;48.772;8.754;2023-02-17T17:06:36;11.40;99.90
16511;DHT22;8368;48.772;8.754;2023-02-17T17:09:04;11.40;99.90
16511;DHT22;8368;48.772;8.754;2023-02-17T17:11:30;11.50;99.90
16511;DHT22;8368;48.772;8.754;2023-02-17T17:13:56;11.40;99.90
16511;DHT22;8368;48.772;8.754;2023-02-17T17:16:30;11.40;99.90
16511;DHT22;8368;48.772;8.754;2023-02-17T17:18:57;11.50;99.90